Time;durP1;ratioP1;P1;durP2;ratioP2;P2;SDS_P1;SDS_P2;PMS_P1;PMS_P2;Temp;Humidity;BMP_temperature;BMP_pressure;BME280_temperature;BME280_humidity;BME280_pressure;Samples;Min_cycle;Max_cycle;Signal;HPM_P1;HPM_P2
2023/09/06 00:00:33;;;;;;;2.15;1.55;;;24.30;53.10;;;;;;5020733;28;20477;-65
2023/09/06 00:03:00;;;;;;;2.28;1.63;;;24.30;53.10;;;;;;5020281;28;20477;-65
2023/09/06 00:05:26;;;;;;;2.10;1.60;;;24.30;53.10;;;;;;5020250;28;20108;-65
2023/09/06 00:07:52;;;;;;;2.28;1.55;;;24.30;53.10;;;;;;5019706;28;20061;-61
2023/09/06 00:10:18;;;;;;;2.33;1.50;;;24.30;53.10;;;;;;5022179;28;20530;-61
2023/09/06 00:12:47;;;;;;;2.35;1.70;;;24.30;53.70;;;;;;5020223;28;20068;-61
2023/09/06 00:15:13;;;;;;;2.42;1.75;;;24.30;53.70;;;;;;5023023;28;20033;-60
2023/09/06 00:17:41;;;;;;;2.20;1.50;;;24.30;53.10;;;;;;5022730;28;20042;-62
2023/09/06 00:20:24;;;;;;;1.95;1.50;;;24.30;53.10;;;;;;5020246;28;20399;-62
2023/09/06 00:23:01;;;;;;;1.98;1.50;;;24.30;53.10;;;;;;5022781;28;20093;-59
2023/09/06 00:25:30;;;;;;;2.17;1.50;;;24.30;53.10;;;;;;5020325;28;20311;-60
2023/09/06 00:27:57;;;;;;;2.10;1.50;;;24.30;53.20;;;;;;5020538;28;20049;-62
2023/09/06 00:30:23;;;;;;;2.20;1.55;;;24.30;53.10;;;;;;5020355;28;20389;-60
2023/09/06 00:32:55;;;;;;;2.45;1.80;;;24.30;53.10;;;;;;5021831;28;20039;-60
2023/09/06 00:35:25;;;;;;;2.15;1.65;;;24.30;53.10;;;;;;5019820;28;20030;-63
2023/09/06 00:37:51;;;;;;;2.15;1.60;;;24.30;53.10;;;;;;5020852;28;20033;-62
2023/09/06 00:40:18;;;;;;;2.63;1.58;;;24.30;53.10;;;;;;5020524;28;20045;-60
2023/09/06 00:42:50;;;;;;;2.05;1.60;;;24.30;53.10;;;;;;5019271;28;20034;-62
2023/09/06 00:45:19;;;;;;;2.40;1.70;;;24.30;53.10;;;;;;5020412;28;20137;-60
2023/09/06 00:47:45;;;;;;;2.20;1.40;;;24.30;53.10;;;;;;5021240;28;20018;-60
2023/09/06 00:50:11;;;;;;;1.92;1.40;;;24.30;53.10;;;;;;5023468;28;20056;-62
2023/09/06 00:52:37;;;;;;;1.98;1.48;;;24.20;53.10;;;;;;5019912;28;20406;-61
2023/09/06 00:55:04;;;;;;;2.30;1.65;;;24.20;53.00;;;;;;5019708;28;20022;-61
2023/09/06 00:57:32;;;;;;;2.20;1.60;;;24.30;53.10;;;;;;5019575;28;20103;-63
2023/09/06 00:59:59;;;;;;;2.25;1.50;;;24.30;53.10;;;;;;5018266;28;20091;-60
2023/09/06 01:02:26;;;;;;;2.50;1.70;;;24.20;53.00;;;;;;5017600;28;20087;-60
2023/09/06 01:04:53;;;;;;;2.22;1.58;;;24.30;53.10;;;;;;5028554;28;20485;-61
2023/09/06 01:07:20;;;;;;;1.90;1.40;;;24.20;53.00;;;;;;5019472;28;20022;-60
2023/09/06 01:09:46;;;;;;;2.10;1.55;;;24.20;53.10;;;;;;5019812;28;20022;-60
2023/09/06 01:12:15;;;;;;;2.03;1.50;;;24.20;53.00;;;;;;5019690;28;20026;-61
2023/09/06 01:14:40;;;;;;;2.08;1.65;;;24.20;53.10;;;;;;5016849;28;20022;-61
2023/09/06 01:17:10;;;;;;;1.90;1.40;;;24.20;53.10;;;;;;5021736;28;20088;-67
2023/09/06 01:19:43;;;;;;;2.00;1.40;;;24.20;53.10;;;;;;5019345;28;20396;-67
2023/09/06 01:22:34;;;;;;;2.35;1.65;;;24.20;53.10;;;;;;5021530;28;20064;-67
2023/09/06 01:24:59;;;;;;;2.17;1.50;;;24.20;53.10;;;;;;5018954;28;20431;-66
2023/09/06 01:27:26;;;;;;;2.03;1.52;;;24.20;53.10;;;;;;5017799;28;20027;-67
2023/09/06 01:29:52;;;;;;;2.00;1.50;;;24.20;53.10;;;;;;5017138;28;20025;-68
2023/09/06 01:32:17;;;;;;;2.10;1.60;;;24.20;53.10;;;;;;5017292;28;20105;-67
2023/09/06 01:34:43;;;;;;;2.13;1.60;;;24.20;53.10;;;;;;5020039;28;20120;-69
2023/09/06 01:37:08;;;;;;;1.98;1.40;;;24.20;53.10;;;;;;5018969;28;20038;-67
2023/09/06 01:39:34;;;;;;;2.22;1.70;;;24.20;53.00;;;;;;5018881;28;20034;-67
2023/09/06 01:42:00;;;;;;;1.90;1.40;;;24.20;53.10;;;;;;5019588;28;20033;-67
2023/09/06 01:44:26;;;;;;;2.20;1.60;;;24.20;53.00;;;;;;5017658;28;20057;-67
2023/09/06 01:46:52;;;;;;;2.22;1.50;;;24.20;53.10;;;;;;5020031;28;20037;-67
2023/09/06 01:49:18;;;;;;;2.00;1.50;;;24.20;53.60;;;;;;5018543;28;20033;-68
2023/09/06 01:51:44;;;;;;;2.03;1.60;;;24.10;53.00;;;;;;5018617;28;20022;-67
2023/09/06 01:54:11;;;;;;;2.15;1.45;;;24.20;53.00;;;;;;5029432;28;20030;-67
2023/09/06 01:56:36;;;;;;;2.40;1.60;;;24.20;53.00;;;;;;5019061;28;20036;-68
2023/09/06 01:59:03;;;;;;;2.22;1.60;;;24.20;53.00;;;;;;5019766;28;20038;-68
2023/09/06 02:01:29;;;;;;;2.35;1.70;;;24.20;53.00;;;;;;5018427;28;20022;-68
2023/09/06 02:03:55;;;;;;;1.85;1.40;;;24.10;53.00;;;;;;5017645;28;20397;-69
2023/09/06 02:06:20;;;;;;;1.95;1.40;;;24.10;53.00;;;;;;5019356;28;20030;-67
2023/09/06 02:08:46;;;;;;;2.13;1.60;;;24.10;53.00;;;;;;5019303;28;20041;-67
2023/09/06 02:11:12;;;;;;;2.15;1.50;;;24.10;53.00;;;;;;5018407;28;20465;-69
2023/09/06 02:13:37;;;;;;;2.50;1.80;;;24.10;53.00;;;;;;5020257;28;20028;-69
2023/09/06 02:16:03;;;;;;;2.25;1.60;;;24.10;53.10;;;;;;5018616;28;20455;-69
2023/09/06 02:18:28;;;;;;;2.10;1.55;;;24.10;53.00;;;;;;5018739;28;20042;-68
2023/09/06 02:20:58;;;;;;;2.15;1.50;;;24.10;53.00;;;;;;5011327;28;20404;-69
2023/09/06 02:23:24;;;;;;;2.17;1.50;;;24.10;53.00;;;;;;5021564;28;20527;-69
2023/09/06 02:25:50;;;;;;;1.83;1.45;;;24.10;53.00;;;;;;5017417;28;20033;-67
2023/09/06 02:28:17;;;;;;;1.80;1.33;;;24.10;53.00;;;;;;5018329;28;20457;-65
2023/09/06 02:30:43;;;;;;;2.08;1.60;;;24.10;53.00;;;;;;5019124;28;20100;-66
2023/09/06 02:33:13;;;;;;;2.60;1.70;;;24.10;53.00;;;;;;5022915;28;20112;-66
2023/09/06 02:35:40;;;;;;;1.75;1.30;;;24.10;53.00;;;;;;5025061;28;20430;-68
2023/09/06 02:38:13;;;;;;;1.83;1.38;;;24.10;53.10;;;;;;5023575;28;20026;-65
2023/09/06 02:40:41;;;;;;;2.10;1.50;;;24.10;53.10;;;;;;5022522;28;20025;-67
2023/09/06 02:43:07;;;;;;;2.20;1.60;;;24.10;53.10;;;;;;5020836;28;20022;-66
2023/09/06 02:45:39;;;;;;;1.63;1.40;;;24.10;53.00;;;;;;5022259;28;20418;-65
2023/09/06 02:48:06;;;;;;;1.88;1.30;;;24.10;53.10;;;;;;5022178;28;20044;-66
2023/09/06 02:50:34;;;;;;;1.98;1.40;;;24.10;53.10;;;;;;5024503;28;20489;-65
2023/09/06 02:53:01;;;;;;;2.20;1.50;;;24.10;53.10;;;;;;5022870;28;20033;-66
2023/09/06 02:55:27;;;;;;;2.50;1.60;;;24.10;53.10;;;;;;5021429;28;20587;-67
2023/09/06 02:57:56;;;;;;;1.90;1.30;;;24.10;53.10;;;;;;5021723;28;20029;-66
2023/09/06 03:00:26;;;;;;;2.55;1.50;;;24.10;53.10;;;;;;5021738;28;20046;-65
2023/09/06 03:03:05;;;;;;;2.60;1.75;;;24.10;53.10;;;;;;5022536;28;20514;-65
2023/09/06 03:05:31;;;;;;;1.92;1.40;;;24.00;53.00;;;;;;5020796;28;20459;-67
2023/09/06 03:07:57;;;;;;;1.98;1.33;;;24.10;53.60;;;;;;5020779;28;20032;-66
2023/09/06 03:10:23;;;;;;;2.03;1.60;;;24.00;53.00;;;;;;5023177;28;20030;-65
2023/09/06 03:13:09;;;;;;;2.17;1.50;;;24.00;53.10;;;;;;5021876;28;20022;-65
2023/09/06 03:15:35;;;;;;;2.35;1.63;;;24.00;53.00;;;;;;5021474;28;20045;-66
2023/09/06 03:18:02;;;;;;;2.00;1.50;;;24.00;53.00;;;;;;5024442;28;20040;-65
2023/09/06 03:20:32;;;;;;;1.95;1.40;;;24.00;53.10;;;;;;5023323;28;20508;-64
2023/09/06 03:23:02;;;;;;;2.50;1.58;;;24.00;53.10;;;;;;5020892;28;20503;-66
2023/09/06 03:25:28;;;;;;;1.65;1.30;;;24.00;53.10;;;;;;5020086;28;20033;-66
2023/09/06 03:28:01;;;;;;;1.90;1.50;;;24.00;53.10;;;;;;5021384;28;20084;-66
2023/09/06 03:30:29;;;;;;;1.83;1.30;;;24.00;53.10;;;;;;5022308;28;20037;-65
2023/09/06 03:32:56;;;;;;;1.90;1.50;;;24.00;53.10;;;;;;5023465;28;20036;-67
2023/09/06 03:35:22;;;;;;;1.85;1.30;;;24.00;53.10;;;;;;5021542;28;20057;-67
2023/09/06 03:37:49;;;;;;;1.98;1.48;;;24.00;53.10;;;;;;5021476;28;20022;-69
2023/09/06 03:40:25;;;;;;;2.30;1.80;;;24.00;53.10;;;;;;5020343;28;20029;-69
2023/09/06 03:42:55;;;;;;;1.80;1.40;;;24.00;53.10;;;;;;5019172;28;20456;-69
2023/09/06 03:45:21;;;;;;;2.13;1.42;;;23.90;53.00;;;;;;5020730;28;20018;-68
2023/09/06 03:47:56;;;;;;;1.90;1.40;;;24.00;53.10;;;;;;5022247;28;20401;-69
2023/09/06 03:50:22;;;;;;;2.20;1.70;;;24.00;53.10;;;;;;5021419;28;20025;-69
2023/09/06 03:52:47;;;;;;;1.73;1.35;;;24.00;53.10;;;;;;5020833;28;20750;-69
2023/09/06 03:55:13;;;;;;;2.30;1.58;;;24.00;53.10;;;;;;5021667;28;20026;-69
2023/09/06 03:57:39;;;;;;;2.53;1.42;;;23.90;53.00;;;;;;5020714;28;20030;-69
2023/09/06 04:03:07;;;;;;;2.10;1.60;;;23.90;53.10;;;;;;4976957;28;20034;-69
2023/09/06 04:05:34;;;;;;;2.17;1.50;;;23.90;53.10;;;;;;5010990;28;20139;-69
2023/09/06 04:08:04;;;;;;;2.25;1.60;;;23.90;53.10;;;;;;5023301;28;20519;-69
2023/09/06 04:10:38;;;;;;;2.10;1.58;;;23.90;53.60;;;;;;5019965;28;20033;-69
2023/09/06 04:13:05;;;;;;;1.95;1.38;;;23.90;53.10;;;;;;5021010;28;20037;-69
2023/09/06 04:15:34;;;;;;;2.22;1.50;;;23.90;53.10;;;;;;5018692;28;20032;-69
2023/09/06 04:18:02;;;;;;;1.90;1.40;;;23.90;53.10;;;;;;5020609;28;20049;-69
2023/09/06 04:20:32;;;;;;;1.98;1.40;;;23.90;53.10;;;;;;5021608;28;20033;-69
2023/09/06 04:23:09;;;;;;;1.67;1.33;;;23.90;53.10;;;;;;5020793;28;20018;-69
2023/09/06 04:25:44;;;;;;;2.20;1.58;;;23.90;53.20;;;;;;5019160;28;20026;-69
2023/09/06 04:28:11;;;;;;;1.95;1.40;;;23.90;53.10;;;;;;5020660;28;20468;-69
2023/09/06 04:30:38;;;;;;;1.70;1.33;;;23.90;53.10;;;;;;5018568;28;20026;-67
2023/09/06 04:33:05;;;;;;;3.47;1.70;;;23.90;53.10;;;;;;5019928;28;20424;-69
2023/09/06 04:35:41;;;;;;;2.10;1.50;;;23.90;53.20;;;;;;5020961;28;20041;-68
2023/09/06 04:38:11;;;;;;;1.73;1.30;;;23.90;53.10;;;;;;5019076;28;20032;-68
2023/09/06 04:40:38;;;;;;;1.80;1.40;;;23.90;53.10;;;;;;5020715;28;20026;-67
2023/09/06 04:43:07;;;;;;;1.98;1.40;;;23.90;53.10;;;;;;5020401;28;20022;-69
2023/09/06 04:45:33;;;;;;;;;;;23.90;53.20;;;;;;5022200;28;20037;-68
2023/09/06 04:47:59;;;;;;;1.83;1.42;;;23.90;53.10;;;;;;5022148;28;19932;-61
2023/09/06 04:50:24;;;;;;;1.90;1.50;;;23.90;53.10;;;;;;5015546;28;20491;-61
2023/09/06 04:52:53;;;;;;;2.40;1.40;;;23.90;53.10;;;;;;5021730;28;20025;-62
2023/09/06 04:55:19;;;;;;;2.05;1.45;;;23.80;53.10;;;;;;5019374;28;20051;-61
2023/09/06 04:57:47;;;;;;;2.00;1.48;;;23.80;53.10;;;;;;5018321;28;20033;-61
2023/09/06 05:00:47;;;;;;;1.87;1.47;;;23.80;53.10;;;;;;5019681;28;20029;-62
2023/09/06 05:03:11;;;;;;;1.95;1.38;;;23.80;53.20;;;;;;5017806;28;20077;-60
2023/09/06 05:05:37;;;;;;;1.90;1.40;;;23.80;53.10;;;;;;5020617;28;20055;-61
2023/09/06 05:08:03;;;;;;;2.15;1.48;;;23.80;53.10;;;;;;5018389;28;20022;-67
2023/09/06 05:10:30;;;;;;;2.15;1.40;;;23.80;53.10;;;;;;5019713;28;20481;-67
2023/09/06 05:12:55;;;;;;;2.10;1.60;;;23.80;53.10;;;;;;5018974;28;20119;-67
2023/09/06 05:15:21;;;;;;;2.00;1.40;;;23.80;53.10;;;;;;5018705;28;20515;-67
2023/09/06 05:17:46;;;;;;;2.30;1.65;;;23.80;53.20;;;;;;5018175;28;20065;-68
2023/09/06 05:20:32;;;;;;;2.13;1.58;;;23.80;53.20;;;;;;5021490;28;20453;-67
2023/09/06 05:23:03;;;;;;;1.65;1.27;;;23.80;53.10;;;;;;5020159;28;20079;-67
2023/09/06 05:25:30;;;;;;;1.65;1.23;;;23.80;53.20;;;;;;5017978;28;20087;-67
2023/09/06 05:28:01;;;;;;;2.20;1.50;;;23.80;53.20;;;;;;5018857;28;20465;-67
2023/09/06 05:30:27;;;;;;;2.13;1.40;;;23.80;53.20;;;;;;5017378;28;20104;-66
2023/09/06 05:32:56;;;;;;;2.38;1.50;;;23.80;53.20;;;;;;5018229;28;20120;-68
2023/09/06 05:35:23;;;;;;;1.70;1.40;;;23.80;53.20;;;;;;5019615;28;20507;-67
2023/09/06 05:37:49;;;;;;;1.67;1.30;;;23.70;53.10;;;;;;5017490;28;20091;-67
2023/09/06 05:40:15;;;;;;;1.70;1.50;;;23.80;53.20;;;;;;5017478;28;20041;-68
2023/09/06 05:42:41;;;;;;;1.80;1.33;;;23.70;53.60;;;;;;5019088;28;20063;-67
2023/09/06 05:45:11;;;;;;;1.92;1.25;;;23.70;53.10;;;;;;5018807;28;20029;-67
2023/09/06 05:47:38;;;;;;;1.85;1.40;;;23.70;53.10;;;;;;5018748;28;20552;-67
2023/09/06 05:50:05;;;;;;;1.88;1.40;;;23.70;53.20;;;;;;5012438;28;20051;-67
2023/09/06 05:52:30;;;;;;;2.00;1.30;;;23.80;53.20;;;;;;5020461;28;20021;-66
2023/09/06 05:54:56;;;;;;;2.15;1.65;;;23.70;53.20;;;;;;5017122;28;20037;-68
2023/09/06 05:57:22;;;;;;;1.90;1.35;;;23.70;53.20;;;;;;5018086;28;20061;-62
2023/09/06 05:59:47;;;;;;;2.03;1.40;;;23.70;53.20;;;;;;5020960;28;20377;-61
2023/09/06 06:02:14;;;;;;;1.65;1.27;;;23.70;53.20;;;;;;5015911;28;20109;-62
2023/09/06 06:04:46;;;;;;;1.70;1.25;;;23.70;53.20;;;;;;5020254;28;20448;-62
2023/09/06 06:07:16;;;;;;;2.00;1.55;;;23.70;53.10;;;;;;5023467;28;20464;-61
2023/09/06 06:09:42;;;;;;;;;;;23.70;53.20;;;;;;5022431;28;20021;-61
2023/09/06 06:12:10;;;;;;;1.85;1.38;;;23.70;53.10;;;;;;5021380;28;19909;-62
2023/09/06 06:14:36;;;;;;;2.30;1.50;;;23.70;53.10;;;;;;5021407;28;20053;-62
2023/09/06 06:17:06;;;;;;;2.00;1.45;;;23.70;53.10;;;;;;5022071;28;20053;-64
2023/09/06 06:19:35;;;;;;;1.90;1.40;;;23.70;53.10;;;;;;5024466;28;20431;-64
2023/09/06 06:22:01;;;;;;;;;;;23.70;53.20;;;;;;5024771;28;21123;-65
2023/09/06 06:24:27;;;;;;;1.70;1.30;;;23.70;53.10;;;;;;5021477;28;19905;-64
2023/09/06 06:26:53;;;;;;;2.10;1.55;;;23.70;53.10;;;;;;5024018;28;20151;-64
2023/09/06 06:29:19;;;;;;;2.45;1.40;;;23.70;53.10;;;;;;5024093;28;20354;-64
2023/09/06 06:31:45;;;;;;;2.10;1.40;;;23.70;53.10;;;;;;5023393;28;20044;-64
2023/09/06 06:34:11;;;;;;;2.30;1.50;;;23.70;53.10;;;;;;5022713;28;20026;-64
2023/09/06 06:36:36;;;;;;;1.70;1.25;;;23.70;53.20;;;;;;5022896;28;20511;-64
2023/09/06 06:39:02;;;;;;;1.63;1.20;;;23.70;53.10;;;;;;5023433;28;20056;-64
2023/09/06 06:41:28;;;;;;;2.38;1.60;;;23.70;53.10;;;;;;5022385;28;20046;-64
2023/09/06 06:43:53;;;;;;;2.00;1.50;;;23.70;53.10;;;;;;5022046;28;20056;-65
2023/09/06 06:46:30;;;;;;;1.90;1.50;;;23.60;53.10;;;;;;5021912;28;20038;-64
2023/09/06 06:48:57;;;;;;;3.45;1.60;;;23.60;53.10;;;;;;5020811;28;20048;-64
2023/09/06 06:51:35;;;;;;;1.92;1.40;;;23.60;53.10;;;;;;5023020;28;20053;-64
2023/09/06 06:54:10;;;;;;;1.88;1.30;;;23.60;53.10;;;;;;5019609;28;20371;-64
2023/09/06 06:56:37;;;;;;;1.75;1.30;;;23.60;53.10;;;;;;5023139;28;20030;-64
2023/09/06 06:59:03;;;;;;;2.00;1.35;;;23.60;53.10;;;;;;5022267;28;20477;-64
2023/09/06 07:01:30;;;;;;;2.10;1.50;;;23.60;53.10;;;;;;5021241;28;20026;-64
2023/09/06 07:04:00;;;;;;;1.95;1.50;;;23.60;53.10;;;;;;5022633;28;20034;-64
2023/09/06 07:06:26;;;;;;;2.15;1.40;;;23.60;53.10;;;;;;5022248;28;20420;-64
2023/09/06 07:08:53;;;;;;;1.95;1.35;;;23.60;53.10;;;;;;5022092;28;20214;-68
2023/09/06 07:11:20;;;;;;;1.92;1.40;;;23.60;53.10;;;;;;5021966;28;20033;-68
2023/09/06 07:13:47;;;;;;;2.22;1.42;;;23.60;53.10;;;;;;5020771;28;20026;-68
2023/09/06 07:16:15;;;;;;;2.10;1.50;;;23.60;53.10;;;;;;5022161;28;20059;-68
2023/09/06 07:18:41;;;;;;;2.00;1.48;;;23.60;53.10;;;;;;5021627;28;20435;-67
2023/09/06 07:21:07;;;;;;;2.97;1.55;;;23.60;53.10;;;;;;5023582;28;20022;-68
2023/09/06 07:23:32;;;;;;;2.00;1.40;;;23.60;53.10;;;;;;5019928;28;20029;-68
2023/09/06 07:25:58;;;;;;;2.40;1.50;;;23.60;53.10;;;;;;5021222;28;20141;-68
2023/09/06 07:28:24;;;;;;;2.00;1.50;;;23.60;53.10;;;;;;5022701;28;20534;-66
2023/09/06 07:30:49;;;;;;;2.30;1.60;;;23.60;53.10;;;;;;5022676;28;20038;-66
2023/09/06 07:33:15;;;;;;;2.13;1.40;;;23.60;53.10;;;;;;5020434;28;20059;-67
2023/09/06 07:35:42;;;;;;;1.90;1.38;;;23.60;53.10;;;;;;5022735;28;20040;-67
2023/09/06 07:38:08;;;;;;;2.22;1.60;;;23.60;53.10;;;;;;5021381;28;20543;-67
2023/09/06 07:40:34;;;;;;;2.33;1.40;;;23.60;53.10;;;;;;5019890;28;20029;-67
2023/09/06 07:42:59;;;;;;;2.20;1.55;;;23.60;53.10;;;;;;5020851;28;20481;-66
2023/09/06 07:45:25;;;;;;;1.90;1.40;;;23.60;53.10;;;;;;5020119;28;20029;-66
2023/09/06 07:47:51;;;;;;;2.25;1.70;;;23.50;53.10;;;;;;5021247;28;20029;-67
2023/09/06 07:50:17;;;;;;;1.77;1.45;;;23.60;53.10;;;;;;5021007;28;20078;-66
2023/09/06 07:52:43;;;;;;;2.42;1.60;;;23.50;53.10;;;;;;5020750;28;20025;-67
2023/09/06 07:55:08;;;;;;;2.08;1.55;;;23.60;53.10;;;;;;5019305;28;20030;-67
2023/09/06 07:57:34;;;;;;;2.17;1.52;;;23.60;53.10;;;;;;5021751;28;20037;-66
2023/09/06 08:00:00;;;;;;;2.15;1.60;;;23.60;53.10;;;;;;5021658;28;20035;-67
2023/09/06 08:02:26;;;;;;;2.38;1.58;;;23.50;53.10;;;;;;5018419;28;20029;-67
2023/09/06 08:04:51;;;;;;;2.13;1.70;;;23.60;53.10;;;;;;5022074;28;20033;-66
2023/09/06 08:07:18;;;;;;;2.33;1.60;;;23.50;53.10;;;;;;5020648;28;20051;-67
2023/09/06 08:09:43;;;;;;;2.03;1.40;;;23.50;53.10;;;;;;5021463;28;20025;-66
2023/09/06 08:12:09;;;;;;;1.88;1.40;;;23.50;53.10;;;;;;5023524;28;20033;-66
2023/09/06 08:14:35;;;;;;;1.83;1.42;;;23.60;53.20;;;;;;5019905;28;20507;-66
2023/09/06 08:17:01;;;;;;;2.10;1.52;;;23.50;53.10;;;;;;5012920;28;20030;-65
2023/09/06 08:19:27;;;;;;;2.10;1.60;;;23.50;53.10;;;;;;5034688;28;20540;-65
2023/09/06 08:21:53;;;;;;;1.95;1.48;;;23.50;53.10;;;;;;5021123;28;20022;-65
2023/09/06 08:24:18;;;;;;;2.35;1.65;;;23.60;53.20;;;;;;5021119;28;20107;-65
2023/09/06 08:26:47;;;;;;;2.10;1.50;;;23.60;53.20;;;;;;5020018;28;20063;-65
2023/09/06 08:29:13;;;;;;;2.35;1.70;;;23.50;53.10;;;;;;5018577;28;20385;-65
2023/09/06 08:31:38;;;;;;;2.08;1.40;;;23.60;53.20;;;;;;5022526;28;20103;-65
2023/09/06 08:34:04;;;;;;;1.90;1.48;;;23.50;53.10;;;;;;5019189;28;20045;-65
2023/09/06 08:36:30;;;;;;;1.85;1.40;;;23.50;53.10;;;;;;5019555;28;20037;-65
2023/09/06 08:38:55;;;;;;;2.13;1.70;;;23.60;53.20;;;;;;5020958;28;20030;-61
2023/09/06 08:41:21;;;;;;;1.95;1.50;;;23.50;53.20;;;;;;5020596;28;20029;-62
2023/09/06 08:43:48;;;;;;;2.05;1.50;;;23.60;53.20;;;;;;5020930;28;20028;-62
2023/09/06 08:46:19;;;;;;;2.58;1.60;;;23.50;53.20;;;;;;5019623;28;20034;-61
2023/09/06 08:48:46;;;;;;;2.25;1.70;;;23.50;53.20;;;;;;5020686;28;20536;-61
2023/09/06 08:51:14;;;;;;;2.40;1.77;;;23.50;53.20;;;;;;5020952;28;20381;-61
2023/09/06 08:53:42;;;;;;;1.95;1.33;;;23.50;53.20;;;;;;5020206;28;20438;-62
2023/09/06 08:56:08;;;;;;;2.10;1.70;;;23.50;53.20;;;;;;5019235;28;20476;-61
2023/09/06 08:58:37;;;;;;;1.95;1.45;;;23.50;53.20;;;;;;5018043;28;20280;-60
2023/09/06 09:01:06;;;;;;;2.28;1.75;;;23.50;53.20;;;;;;5019147;28;20047;-61
2023/09/06 09:03:32;;;;;;;2.35;1.70;;;23.50;53.20;;;;;;5018751;28;20041;-61
2023/09/06 09:05:59;;;;;;;2.00;1.50;;;23.50;53.20;;;;;;5019993;28;20038;-61
2023/09/06 09:08:30;;;;;;;2.47;1.60;;;23.50;53.70;;;;;;5019947;28;20018;-62
2023/09/06 09:11:18;;;;;;;2.42;1.67;;;23.50;53.20;;;;;;5019362;28;20154;-61
2023/09/06 09:13:45;;;;;;;2.47;1.70;;;23.50;53.20;;;;;;5019463;28;20043;-61
2023/09/06 09:16:15;;;;;;;2.00;1.40;;;23.60;53.30;;;;;;5020126;28;20038;-61
2023/09/06 09:18:43;;;;;;;1.95;1.45;;;23.50;53.20;;;;;;5019594;28;20053;-61
2023/09/06 09:21:10;;;;;;;2.42;1.70;;;23.50;53.20;;;;;;5020423;28;20473;-62
2023/09/06 09:24:02;;;;;;;2.20;1.60;;;23.50;53.20;;;;;;5018744;28;20473;-63
2023/09/06 09:26:32;;;;;;;2.13;1.60;;;23.50;53.20;;;;;;5013647;28;20111;-62
2023/09/06 09:29:03;;;;;;;2.53;1.77;;;23.50;53.20;;;;;;5018626;28;20053;-66
2023/09/06 09:31:30;;;;;;;2.35;1.70;;;23.50;53.20;;;;;;5019607;28;20075;-66
2023/09/06 09:33:56;;;;;;;2.10;1.60;;;23.50;53.20;;;;;;5020052;28;20030;-66
2023/09/06 09:36:22;;;;;;;2.08;1.52;;;23.60;53.30;;;;;;5019451;28;20117;-66
2023/09/06 09:38:49;;;;;;;2.42;1.70;;;23.50;53.20;;;;;;5020672;28;20032;-65
2023/09/06 09:41:15;;;;;;;2.13;1.60;;;23.50;53.30;;;;;;5020325;28;20026;-67
2023/09/06 09:43:41;;;;;;;2.40;1.73;;;23.50;53.30;;;;;;5017602;28;20485;-67
2023/09/06 09:46:08;;;;;;;2.20;1.63;;;23.50;53.30;;;;;;5017931;28;20103;-66
2023/09/06 09:48:34;;;;;;;2.50;1.75;;;23.50;53.30;;;;;;5019050;28;20111;-61
2023/09/06 09:51:04;;;;;;;2.28;1.60;;;23.50;53.30;;;;;;5018714;28;20029;-62
2023/09/06 09:53:31;;;;;;;2.53;1.70;;;23.50;53.30;;;;;;5020026;28;20064;-62
2023/09/06 09:56:00;;;;;;;2.40;1.50;;;23.50;53.80;;;;;;5013526;28;20159;-60
2023/09/06 09:58:28;;;;;;;2.40;1.60;;;23.50;53.30;;;;;;5020871;28;20084;-61
2023/09/06 10:00:56;;;;;;;2.28;1.77;;;23.50;53.30;;;;;;5018364;28;20026;-61
2023/09/06 10:03:22;;;;;;;2.30;1.80;;;23.50;53.30;;;;;;5018564;28;20061;-60
2023/09/06 10:05:49;;;;;;;1.88;1.50;;;23.50;53.30;;;;;;5029351;28;20022;-62
2023/09/06 10:08:18;;;;;;;2.20;1.50;;;23.50;53.30;;;;;;5018640;28;20060;-61
2023/09/06 10:10:44;;;;;;;2.10;1.50;;;23.50;53.40;;;;;;5019927;28;20045;-60
2023/09/06 10:13:13;;;;;;;2.22;1.60;;;23.50;53.30;;;;;;5020025;28;20053;-61
2023/09/06 10:15:39;;;;;;;2.17;1.55;;;23.50;53.40;;;;;;5017834;28;20040;-62
2023/09/06 10:18:06;;;;;;;2.10;1.50;;;23.50;53.40;;;;;;5027733;28;20041;-61
2023/09/06 10:20:34;;;;;;;2.15;1.60;;;23.50;53.40;;;;;;5019179;28;20071;-61
2023/09/06 10:23:01;;;;;;;2.10;1.60;;;23.50;53.40;;;;;;5017967;28;20037;-62
2023/09/06 10:25:26;;;;;;;2.30;1.60;;;23.50;53.40;;;;;;5021080;28;20211;-60
2023/09/06 10:27:56;;;;;;;1.95;1.40;;;23.50;53.40;;;;;;5016596;28;20536;-60
2023/09/06 10:30:34;;;;;;;2.30;1.55;;;23.50;53.40;;;;;;5017071;28;20715;-61
2023/09/06 10:33:03;;;;;;;2.42;1.77;;;23.50;53.40;;;;;;5017038;28;20037;-62
2023/09/06 10:35:32;;;;;;;2.40;1.70;;;23.50;53.40;;;;;;5019216;28;20034;-62
2023/09/06 10:38:03;;;;;;;2.45;1.60;;;23.50;53.40;;;;;;5018351;28;20041;-68
2023/09/06 10:40:51;;;;;;;2.03;1.50;;;23.50;53.40;;;;;;5017071;28;20029;-68
2023/09/06 10:43:28;;;;;;;2.28;1.60;;;23.50;53.30;;;;;;5009523;28;20520;-67
2023/09/06 10:46:09;;;;;;;2.10;1.60;;;23.50;53.30;;;;;;5019032;28;20041;-68
2023/09/06 10:48:35;;;;;;;2.70;1.67;;;23.50;53.30;;;;;;5018183;28;20022;-68
2023/09/06 10:51:06;;;;;;;2.30;1.80;;;23.60;53.30;;;;;;5019002;28;20044;-67
2023/09/06 10:53:33;;;;;;;2.10;1.60;;;23.50;53.30;;;;;;5023045;28;20026;-67
2023/09/06 10:56:01;;;;;;;3.05;1.63;;;23.50;53.30;;;;;;5022014;28;20867;-68
2023/09/06 10:58:32;;;;;;;2.13;1.60;;;23.50;53.30;;;;;;5024682;28;20044;-66
2023/09/06 11:01:20;;;;;;;2.28;1.60;;;23.50;53.30;;;;;;5021642;28;20501;-67
2023/09/06 11:03:54;;;;;;;2.17;1.63;;;23.50;53.30;;;;;;5020068;28;20112;-67
2023/09/06 11:06:23;;;;;;;2.42;1.50;;;23.50;53.30;;;;;;5016848;28;20074;-66
2023/09/06 11:08:49;;;;;;;2.58;1.70;;;23.50;53.30;;;;;;5021327;28;20017;-67
2023/09/06 11:11:14;;;;;;;2.33;1.50;;;23.60;53.30;;;;;;5034707;28;20030;-66
2023/09/06 11:13:44;;;;;;;2.17;1.38;;;23.50;53.30;;;;;;5021239;28;20026;-66
2023/09/06 11:16:15;;;;;;;1.75;1.35;;;23.50;53.30;;;;;;5022876;28;20044;-66
2023/09/06 11:18:49;;;;;;;2.30;1.50;;;23.50;53.30;;;;;;5019625;28;20026;-67
2023/09/06 11:21:24;;;;;;;1.92;1.40;;;23.50;53.30;;;;;;5022360;28;20026;-66
2023/09/06 11:23:52;;;;;;;2.05;1.40;;;23.50;53.30;;;;;;5022359;28;20510;-66
2023/09/06 11:26:19;;;;;;;2.42;1.45;;;23.50;53.30;;;;;;5023199;28;20040;-67
2023/09/06 11:28:47;;;;;;;2.40;1.65;;;23.50;53.30;;;;;;5021362;28;20028;-67
2023/09/06 11:31:39;;;;;;;2.20;1.60;;;23.50;53.30;;;;;;5020370;28;20033;-67
2023/09/06 11:34:05;;;;;;;2.17;1.60;;;23.60;53.40;;;;;;5018726;28;20026;-67
2023/09/06 11:36:33;;;;;;;1.60;1.30;;;23.60;53.40;;;;;;5020927;28;20508;-67
2023/09/06 11:39:34;;;;;;;2.17;1.55;;;23.60;53.90;;;;;;5021545;28;20501;-67
2023/09/06 11:41:54;;;;;;;2.15;1.45;;;23.60;53.40;;;;;;5016596;28;20409;-66
2023/09/06 11:44:22;;;;;;;2.42;1.70;;;23.50;53.30;;;;;;5021335;28;20036;-65
2023/09/06 11:46:49;;;;;;;2.27;1.40;;;23.50;53.40;;;;;;5020359;28;20505;-61
2023/09/06 11:49:17;;;;;;;2.47;1.30;;;23.50;53.40;;;;;;5020920;28;20308;-60
2023/09/06 11:51:46;;;;;;;2.43;1.80;;;23.50;53.30;;;;;;5020967;28;20026;-62
2023/09/06 11:54:12;;;;;;;2.13;1.50;;;23.50;53.40;;;;;;5021631;28;20260;-60
2023/09/06 11:56:42;;;;;;;2.00;1.60;;;23.50;53.40;;;;;;5020025;28;20457;-62
2023/09/06 11:59:12;;;;;;;2.20;1.63;;;23.60;53.40;;;;;;5021759;28;20030;-62
2023/09/06 12:01:44;;;;;;;1.95;1.50;;;23.60;53.40;;;;;;5021341;28;20034;-60
2023/09/06 12:04:15;;;;;;;2.33;1.50;;;23.50;53.40;;;;;;5021403;28;20080;-63
2023/09/06 12:06:41;;;;;;;2.17;1.60;;;23.60;53.40;;;;;;5020726;28;20509;-62
2023/09/06 12:09:12;;;;;;;2.22;1.60;;;23.60;53.40;;;;;;5015631;28;20156;-61
2023/09/06 12:11:38;;;;;;;2.05;1.55;;;23.60;53.40;;;;;;5020528;28;20111;-62
2023/09/06 12:14:04;;;;;;;2.55;1.60;;;23.60;53.40;;;;;;5021069;28;20026;-62
2023/09/06 12:16:31;;;;;;;2.20;1.58;;;23.60;53.40;;;;;;5019946;28;20037;-63
2023/09/06 12:18:56;;;;;;;2.40;1.50;;;23.60;53.40;;;;;;5019325;28;20048;-61
2023/09/06 12:21:22;;;;;;;2.60;1.70;;;23.60;53.40;;;;;;5021415;28;20434;-60
2023/09/06 12:23:48;;;;;;;2.08;1.60;;;23.60;53.40;;;;;;5021543;28;20112;-63
2023/09/06 12:26:16;;;;;;;2.10;1.45;;;23.60;53.40;;;;;;5021913;28;20047;-61
2023/09/06 12:28:42;;;;;;;1.67;1.30;;;23.60;53.40;;;;;;5018307;28;20026;-61
2023/09/06 12:31:07;;;;;;;2.50;1.60;;;23.60;53.50;;;;;;5021236;28;20032;-62
2023/09/06 12:33:33;;;;;;;1.95;1.55;;;23.60;53.50;;;;;;5018683;28;20022;-61
2023/09/06 12:36:00;;;;;;;2.33;1.70;;;23.60;53.50;;;;;;5020227;28;20036;-61
2023/09/06 12:38:27;;;;;;;2.38;1.58;;;23.60;53.50;;;;;;5017977;28;20080;-61
2023/09/06 12:40:52;;;;;;;2.50;1.70;;;23.60;53.50;;;;;;5020984;28;20034;-60
2023/09/06 12:43:19;;;;;;;2.58;1.77;;;23.60;53.50;;;;;;5019940;28;20029;-63
2023/09/06 12:45:47;;;;;;;2.22;1.50;;;23.60;53.40;;;;;;5019901;28;20469;-62
2023/09/06 12:48:13;;;;;;;2.17;1.60;;;23.60;53.40;;;;;;5021125;28;20485;-61
2023/09/06 12:50:39;;;;;;;2.28;1.67;;;23.60;53.40;;;;;;5020558;28;20079;-61
2023/09/06 12:53:07;;;;;;;2.15;1.70;;;23.60;53.40;;;;;;5022604;28;20401;-61
2023/09/06 12:55:33;;;;;;;2.28;1.60;;;23.60;53.40;;;;;;5021351;28;20614;-61